sensor_id;sensor_type;location;lat;lon;timestamp;temperature;humidity
19031;DHT22;9648;51.130;13.978;2022-11-23T00:01:28;2.30;99.90
19031;DHT22;9648;51.130;13.978;2022-11-23T00:03:57;2.30;99.90
19031;DHT22;9648;51.130;13.978;2022-11-23T00:06:25;2.30;99.90
19031;DHT22;9648;51.130;13.978;2022-11-23T00:08:52;2.30;99.90
19031;DHT22;9648;51.130;13.978;2022-11-23T00:11:20;2.30;99.90
19031;DHT22;9648;51.130;13.978;2022-11-23T00:13:48;2.30;99.90
19031;DHT22;9648;51.130;13.978;2022-11-23T00:16:16;2.30;99.90
19031;DHT22;9648;51.130;13.978;2022-11-23T00:18:45;2.30;99.90
19031;DHT22;9648;51.130;13.978;2022-11-23T00:21:14;2.20;99.90
19031;DHT22;9648;51.130;13.978;2022-11-23T00:23:42;2.20;99.90
19031;DHT22;9648;51.130;13.978;2022-11-23T00:26:09;2.20;99.90
19031;DHT22;9648;51.130;13.978;2022-11-23T00:28:36;2.20;99.90
19031;DHT22;9648;51.130;13.978;2022-11-23T00:31:05;2.20;99.90
19031;DHT22;9648;51.130;13.978;2022-11-23T00:33:32;2.20;99.90
19031;DHT22;9648;51.130;13.978;2022-11-23T00:36:01;2.20;99.90
19031;DHT22;9648;51.130;13.978;2022-11-23T00:38:29;2.20;99.90
19031;DHT22;9648;51.130;13.978;2022-11-23T00:40:57;2.20;99.90
19031;DHT22;9648;51.130;13.978;2022-11-23T00:43:25;2.20;99.90
19031;DHT22;9648;51.130;13.978;2022-11-23T00:46:01;2.20;99.90
19031;DHT22;9648;51.130;13.978;2022-11-23T00:48:29;2.10;99.90
19031;DHT22;9648;51.130;13.978;2022-11-23T00:50:55;2.10;99.90
19031;DHT22;9648;51.130;13.978;2022-11-23T00:53:24;2.10;99.90
19031;DHT22;9648;51.130;13.978;2022-11-23T00:55:51;2.20;99.90
19031;DHT22;9648;51.130;13.978;2022-11-23T00:58:18;2.20;99.90
19031;DHT22;9648;51.130;13.978;2022-11-23T01:00:46;2.20;99.90
19031;DHT22;9648;51.130;13.978;2022-11-23T01:03:13;2.20;99.90
19031;DHT22;9648;51.130;13.978;2022-11-23T01:05:40;2.10;99.90
19031;DHT22;9648;51.130;13.978;2022-11-23T01:08:06;2.10;99.90
19031;DHT22;9648;51.130;13.978;2022-11-23T01:10:35;2.10;99.90
19031;DHT22;9648;51.130;13.978;2022-11-23T01:13:01;2.10;99.90
19031;DHT22;9648;51.130;13.978;2022-11-23T01:15:28;2.10;99.90
19031;DHT22;9648;51.130;13.978;2022-11-23T01:17:55;2.10;99.90
19031;DHT22;9648;51.130;13.978;2022-11-23T01:20:22;2.10;99.90
19031;DHT22;9648;51.130;13.978;2022-11-23T01:22:50;2.10;99.90
19031;DHT22;9648;51.130;13.978;2022-11-23T01:25:17;2.00;99.90
19031;DHT22;9648;51.130;13.978;2022-11-23T01:27:45;2.00;99.90
19031;DHT22;9648;51.130;13.978;2022-11-23T01:30:13;1.90;99.90
19031;DHT22;9648;51.130;13.978;2022-11-23T01:32:40;1.90;99.90
19031;DHT22;9648;51.130;13.978;2022-11-23T01:35:07;1.80;99.90
19031;DHT22;9648;51.130;13.978;2022-11-23T01:37:34;1.80;99.90
19031;DHT22;9648;51.130;13.978;2022-11-23T01:40:01;1.80;99.90
19031;DHT22;9648;51.130;13.978;2022-11-23T01:42:42;1.70;99.90
19031;DHT22;9648;51.130;13.978;2022-11-23T01:45:32;1.70;99.90
19031;DHT22;9648;51.130;13.978;2022-11-23T01:47:59;1.70;99.90
19031;DHT22;9648;51.130;13.978;2022-11-23T01:50:26;1.70;99.90
19031;DHT22;9648;51.130;13.978;2022-11-23T01:52:53;1.70;99.90
19031;DHT22;9648;51.130;13.978;2022-11-23T01:55:20;1.60;99.90
19031;DHT22;9648;51.130;13.978;2022-11-23T01:57:47;1.60;99.90
19031;DHT22;9648;51.130;13.978;2022-11-23T02:00:14;1.60;99.90
19031;DHT22;9648;51.130;13.978;2022-11-23T02:02:46;1.50;99.90
19031;DHT22;9648;51.130;13.978;2022-11-23T02:05:17;1.50;99.90
19031;DHT22;9648;51.130;13.978;2022-11-23T02:07:46;1.50;99.90
19031;DHT22;9648;51.130;13.978;2022-11-23T02:10:13;1.50;99.90
19031;DHT22;9648;51.130;13.978;2022-11-23T02:12:40;1.50;99.90
19031;DHT22;9648;51.130;13.978;2022-11-23T02:15:07;1.40;99.90
19031;DHT22;9648;51.130;13.978;2022-11-23T02:17:34;1.40;99.90
19031;DHT22;9648;51.130;13.978;2022-11-23T02:20:07;1.40;99.90
19031;DHT22;9648;51.130;13.978;2022-11-23T02:22:39;1.40;99.90
19031;DHT22;9648;51.130;13.978;2022-11-23T02:25:15;1.40;99.90
19031;DHT22;9648;51.130;13.978;2022-11-23T02:27:45;1.40;99.90
19031;DHT22;9648;51.130;13.978;2022-11-23T02:30:12;1.40;99.90
19031;DHT22;9648;51.130;13.978;2022-11-23T02:32:39;1.40;99.90
19031;DHT22;9648;51.130;13.978;2022-11-23T02:35:08;1.40;99.90
19031;DHT22;9648;51.130;13.978;2022-11-23T02:37:36;1.40;99.90
19031;DHT22;9648;51.130;13.978;2022-11-23T02:40:08;1.40;99.90
19031;DHT22;9648;51.130;13.978;2022-11-23T02:42:38;1.40;99.90
19031;DHT22;9648;51.130;13.978;2022-11-23T02:45:14;1.40;99.90
19031;DHT22;9648;51.130;13.978;2022-11-23T02:47:45;1.40;99.90
19031;DHT22;9648;51.130;13.978;2022-11-23T02:50:13;1.40;99.90
19031;DHT22;9648;51.130;13.978;2022-11-23T02:52:40;1.40;99.90
19031;DHT22;9648;51.130;13.978;2022-11-23T02:55:08;1.40;99.90
19031;DHT22;9648;51.130;13.978;2022-11-23T02:57:34;1.40;99.90
19031;DHT22;9648;51.130;13.978;2022-11-23T03:00:01;1.40;99.90
19031;DHT22;9648;51.130;13.978;2022-11-23T03:02:30;1.40;99.90
19031;DHT22;9648;51.130;13.978;2022-11-23T03:04:56;1.40;99.90
19031;DHT22;9648;51.130;13.978;2022-11-23T03:07:23;1.40;99.90
19031;DHT22;9648;51.130;13.978;2022-11-23T03:09:50;1.40;99.90
19031;DHT22;9648;51.130;13.978;2022-11-23T03:12:17;1.40;99.90
19031;DHT22;9648;51.130;13.978;2022-11-23T03:14:43;1.40;99.90
19031;DHT22;9648;51.130;13.978;2022-11-23T03:17:10;1.50;99.90
19031;DHT22;9648;51.130;13.978;2022-11-23T03:19:38;1.50;99.90
19031;DHT22;9648;51.130;13.978;2022-11-23T03:22:05;1.50;99.90
19031;DHT22;9648;51.130;13.978;2022-11-23T03:24:32;1.50;99.90
19031;DHT22;9648;51.130;13.978;2022-11-23T03:26:59;1.50;99.90
19031;DHT22;9648;51.130;13.978;2022-11-23T03:29:26;1.50;99.90
19031;DHT22;9648;51.130;13.978;2022-11-23T03:31:53;1.50;99.90
19031;DHT22;9648;51.130;13.978;2022-11-23T03:34:20;1.50;99.90
19031;DHT22;9648;51.130;13.978;2022-11-23T03:36:49;1.50;99.90
19031;DHT22;9648;51.130;13.978;2022-11-23T03:39:15;1.50;99.90
19031;DHT22;9648;51.130;13.978;2022-11-23T03:41:42;1.50;99.90
19031;DHT22;9648;51.130;13.978;2022-11-23T03:44:09;1.50;99.90
19031;DHT22;9648;51.130;13.978;2022-11-23T03:46:36;1.50;99.90
19031;DHT22;9648;51.130;13.978;2022-11-23T03:49:03;1.50;99.90
19031;DHT22;9648;51.130;13.978;2022-11-23T03:51:29;1.50;99.90
19031;DHT22;9648;51.130;13.978;2022-11-23T03:53:58;1.50;99.90
19031;DHT22;9648;51.130;13.978;2022-11-23T03:56:24;1.50;99.90
19031;DHT22;9648;51.130;13.978;2022-11-23T03:58:51;1.50;99.90
19031;DHT22;9648;51.130;13.978;2022-11-23T04:01:18;1.50;99.90
19031;DHT22;9648;51.130;13.978;2022-11-23T04:03:45;1.50;99.90
19031;DHT22;9648;51.130;13.978;2022-11-23T04:06:11;1.50;99.90
19031;DHT22;9648;51.130;13.978;2022-11-23T04:08:38;1.50;99.90
19031;DHT22;9648;51.130;13.978;2022-11-23T04:11:06;1.50;99.90
19031;DHT22;9648;51.130;13.978;2022-11-23T04:13:33;1.50;99.90
19031;DHT22;9648;51.130;13.978;2022-11-23T04:16:00;1.50;99.90
19031;DHT22;9648;51.130;13.978;2022-11-23T04:18:27;1.50;99.90
19031;DHT22;9648;51.130;13.978;2022-11-23T04:20:53;1.50;99.90
19031;DHT22;9648;51.130;13.978;2022-11-23T04:23:20;1.50;99.90
19031;DHT22;9648;51.130;13.978;2022-11-23T04:25:47;1.50;99.90
19031;DHT22;9648;51.130;13.978;2022-11-23T04:28:15;1.50;99.90
19031;DHT22;9648;51.130;13.978;2022-11-23T04:30:42;1.50;99.90
19031;DHT22;9648;51.130;13.978;2022-11-23T04:33:10;1.50;99.90
19031;DHT22;9648;51.130;13.978;2022-11-23T04:35:37;1.50;99.90
19031;DHT22;9648;51.130;13.978;2022-11-23T04:38:04;1.50;99.90
19031;DHT22;9648;51.130;13.978;2022-11-23T04:40:31;1.50;99.90
19031;DHT22;9648;51.130;13.978;2022-11-23T04:42:57;1.50;99.90
19031;DHT22;9648;51.130;13.978;2022-11-23T04:45:26;1.40;99.90
19031;DHT22;9648;51.130;13.978;2022-11-23T04:47:52;1.40;99.90
19031;DHT22;9648;51.130;13.978;2022-11-23T04:50:19;1.50;99.90
19031;DHT22;9648;51.130;13.978;2022-11-23T04:52:46;1.50;99.90
19031;DHT22;9648;51.130;13.978;2022-11-23T04:55:13;1.50;99.90
19031;DHT22;9648;51.130;13.978;2022-11-23T04:57:39;1.50;99.90
19031;DHT22;9648;51.130;13.978;2022-11-23T05:00:07;1.50;99.90
19031;DHT22;9648;51.130;13.978;2022-11-23T05:02:36;1.50;99.90
19031;DHT22;9648;51.130;13.978;2022-11-23T05:05:03;1.50;99.90
19031;DHT22;9648;51.130;13.978;2022-11-23T05:07:30;1.50;99.90
19031;DHT22;9648;51.130;13.978;2022-11-23T05:09:57;1.50;99.90
19031;DHT22;9648;51.130;13.978;2022-11-23T05:12:23;1.50;99.90
19031;DHT22;9648;51.130;13.978;2022-11-23T05:14:50;1.40;99.90
19031;DHT22;9648;51.130;13.978;2022-11-23T05:17:17;1.40;99.90
19031;DHT22;9648;51.130;13.978;2022-11-23T05:19:45;1.40;99.90
19031;DHT22;9648;51.130;13.978;2022-11-23T05:22:12;1.40;99.90
19031;DHT22;9648;51.130;13.978;2022-11-23T05:24:39;1.40;99.90
19031;DHT22;9648;51.130;13.978;2022-11-23T05:27:05;1.40;99.90
19031;DHT22;9648;51.130;13.978;2022-11-23T05:29:32;1.30;99.90
19031;DHT22;9648;51.130;13.978;2022-11-23T05:31:59;1.40;99.90
19031;DHT22;9648;51.130;13.978;2022-11-23T05:34:26;1.30;99.90
19031;DHT22;9648;51.130;13.978;2022-11-23T05:36:54;1.30;99.90
19031;DHT22;9648;51.130;13.978;2022-11-23T05:39:21;1.30;99.90
19031;DHT22;9648;51.130;13.978;2022-11-23T05:41:48;1.30;99.90
19031;DHT22;9648;51.130;13.978;2022-11-23T05:44:14;1.40;99.90
19031;DHT22;9648;51.130;13.978;2022-11-23T05:46:41;1.40;99.90
19031;DHT22;9648;51.130;13.978;2022-11-23T05:49:08;1.40;99.90
19031;DHT22;9648;51.130;13.978;2022-11-23T05:51:35;1.40;99.90
19031;DHT22;9648;51.130;13.978;2022-11-23T05:54:04;1.40;99.90
19031;DHT22;9648;51.130;13.978;2022-11-23T05:56:31;1.40;99.90
19031;DHT22;9648;51.130;13.978;2022-11-23T05:58:57;1.40;99.90
19031;DHT22;9648;51.130;13.978;2022-11-23T06:01:24;1.40;99.90
19031;DHT22;9648;51.130;13.978;2022-11-23T06:03:51;1.40;99.90
19031;DHT22;9648;51.130;13.978;2022-11-23T06:06:18;1.40;99.90
19031;DHT22;9648;51.130;13.978;2022-11-23T06:08:45;1.40;99.90
19031;DHT22;9648;51.130;13.978;2022-11-23T06:11:13;1.40;99.90
19031;DHT22;9648;51.130;13.978;2022-11-23T06:13:39;1.30;99.90
19031;DHT22;9648;51.130;13.978;2022-11-23T06:16:06;1.30;99.90
19031;DHT22;9648;51.130;13.978;2022-11-23T06:18:33;1.30;99.90
19031;DHT22;9648;51.130;13.978;2022-11-23T06:21:00;1.30;99.90
19031;DHT22;9648;51.130;13.978;2022-11-23T06:23:27;1.30;99.90
19031;DHT22;9648;51.130;13.978;2022-11-23T06:25:54;1.20;99.90
19031;DHT22;9648;51.130;13.978;2022-11-23T06:28:22;1.20;99.90
19031;DHT22;9648;51.130;13.978;2022-11-23T06:30:49;1.20;99.90
19031;DHT22;9648;51.130;13.978;2022-11-23T06:33:15;1.20;99.90
19031;DHT22;9648;51.130;13.978;2022-11-23T06:35:51;1.20;99.90
19031;DHT22;9648;51.130;13.978;2022-11-23T06:38:17;1.20;99.90
19031;DHT22;9648;51.130;13.978;2022-11-23T06:40:44;1.30;99.90
19031;DHT22;9648;51.130;13.978;2022-11-23T06:43:11;1.30;99.90
19031;DHT22;9648;51.130;13.978;2022-11-23T06:45:39;1.40;99.90
19031;DHT22;9648;51.130;13.978;2022-11-23T06:48:06;1.40;99.90
19031;DHT22;9648;51.130;13.978;2022-11-23T06:50:33;1.50;99.90
19031;DHT22;9648;51.130;13.978;2022-11-23T06:53:00;1.50;99.90
19031;DHT22;9648;51.130;13.978;2022-11-23T06:55:26;1.60;99.90
19031;DHT22;9648;51.130;13.978;2022-11-23T06:57:55;1.60;99.90
19031;DHT22;9648;51.130;13.978;2022-11-23T07:00:22;1.60;99.90
19031;DHT22;9648;51.130;13.978;2022-11-23T07:02:54;1.70;99.90
19031;DHT22;9648;51.130;13.978;2022-11-23T07:05:21;1.70;99.90
19031;DHT22;9648;51.130;13.978;2022-11-23T07:07:48;1.70;99.90
19031;DHT22;9648;51.130;13.978;2022-11-23T07:10:16;1.70;99.90
19031;DHT22;9648;51.130;13.978;2022-11-23T07:12:43;1.80;99.90
19031;DHT22;9648;51.130;13.978;2022-11-23T07:15:10;1.80;99.90
19031;DHT22;9648;51.130;13.978;2022-11-23T07:17:41;1.90;99.90
19031;DHT22;9648;51.130;13.978;2022-11-23T07:20:11;1.90;99.90
19031;DHT22;9648;51.130;13.978;2022-11-23T07:22:38;1.90;99.90
19031;DHT22;9648;51.130;13.978;2022-11-23T07:25:05;2.00;99.90
19031;DHT22;9648;51.130;13.978;2022-11-23T07:27:32;2.00;99.90
19031;DHT22;9648;51.130;13.978;2022-11-23T07:29:59;2.00;99.90
19031;DHT22;9648;51.130;13.978;2022-11-23T07:32:26;2.10;99.90
19031;DHT22;9648;51.130;13.978;2022-11-23T07:34:53;2.10;99.90
19031;DHT22;9648;51.130;13.978;2022-11-23T07:37:21;2.20;99.90
19031;DHT22;9648;51.130;13.978;2022-11-23T07:39:48;2.20;99.90
19031;DHT22;9648;51.130;13.978;2022-11-23T07:42:17;2.20;99.90
19031;DHT22;9648;51.130;13.978;2022-11-23T07:44:44;2.30;99.90
19031;DHT22;9648;51.130;13.978;2022-11-23T07:47:11;2.30;99.90
19031;DHT22;9648;51.130;13.978;2022-11-23T07:49:37;2.40;99.90
19031;DHT22;9648;51.130;13.978;2022-11-23T07:52:04;2.40;99.90
19031;DHT22;9648;51.130;13.978;2022-11-23T07:54:32;2.50;99.90
19031;DHT22;9648;51.130;13.978;2022-11-23T07:56:59;2.50;99.90
19031;DHT22;9648;51.130;13.978;2022-11-23T07:59:26;2.50;99.90
19031;DHT22;9648;51.130;13.978;2022-11-23T08:01:52;2.60;99.90
19031;DHT22;9648;51.130;13.978;2022-11-23T08:04:19;2.60;99.90
19031;DHT22;9648;51.130;13.978;2022-11-23T08:06:47;2.70;99.90
19031;DHT22;9648;51.130;13.978;2022-11-23T08:09:14;2.70;99.90
19031;DHT22;9648;51.130;13.978;2022-11-23T08:11:42;2.70;99.90
19031;DHT22;9648;51.130;13.978;2022-11-23T08:14:08;2.70;99.90
19031;DHT22;9648;51.130;13.978;2022-11-23T08:16:35;2.80;99.90
19031;DHT22;9648;51.130;13.978;2022-11-23T08:19:02;2.80;99.90
19031;DHT22;9648;51.130;13.978;2022-11-23T08:21:29;2.80;99.90
19031;DHT22;9648;51.130;13.978;2022-11-23T08:23:56;2.80;99.90
19031;DHT22;9648;51.130;13.978;2022-11-23T08:26:22;2.90;99.90
19031;DHT22;9648;51.130;13.978;2022-11-23T08:28:50;2.90;99.90
19031;DHT22;9648;51.130;13.978;2022-11-23T08:31:17;2.90;99.90
19031;DHT22;9648;51.130;13.978;2022-11-23T08:33:44;3.00;99.90
19031;DHT22;9648;51.130;13.978;2022-11-23T08:36:11;3.00;99.90
19031;DHT22;9648;51.130;13.978;2022-11-23T08:38:38;3.10;99.90
19031;DHT22;9648;51.130;13.978;2022-11-23T08:41:05;3.10;99.90
19031;DHT22;9648;51.130;13.978;2022-11-23T08:43:31;3.20;99.90
19031;DHT22;9648;51.130;13.978;2022-11-23T08:46:01;3.20;99.90
19031;DHT22;9648;51.130;13.978;2022-11-23T08:48:28;3.30;99.90
19031;DHT22;9648;51.130;13.978;2022-11-23T08:50:57;3.30;99.90
19031;DHT22;9648;51.130;13.978;2022-11-23T08:53:24;3.30;99.90
19031;DHT22;9648;51.130;13.978;2022-11-23T08:55:51;3.40;99.90
19031;DHT22;9648;51.130;13.978;2022-11-23T08:58:18;3.40;99.90
19031;DHT22;9648;51.130;13.978;2022-11-23T09:00:45;3.50;99.90
19031;DHT22;9648;51.130;13.978;2022-11-23T09:03:13;3.50;99.90
19031;DHT22;9648;51.130;13.978;2022-11-23T09:05:40;3.60;99.90
19031;DHT22;9648;51.130;13.978;2022-11-23T09:08:07;3.60;99.90
19031;DHT22;9648;51.130;13.978;2022-11-23T09:10:35;3.60;99.90
19031;DHT22;9648;51.130;13.978;2022-11-23T09:13:02;3.70;99.90
19031;DHT22;9648;51.130;13.978;2022-11-23T09:15:29;3.70;99.90
19031;DHT22;9648;51.130;13.978;2022-11-23T09:17:56;3.80;99.90
19031;DHT22;9648;51.130;13.978;2022-11-23T09:20:24;3.90;99.90
19031;DHT22;9648;51.130;13.978;2022-11-23T09:22:51;4.00;99.90
19031;DHT22;9648;51.130;13.978;2022-11-23T09:25:19;4.00;99.90
19031;DHT22;9648;51.130;13.978;2022-11-23T09:27:46;4.20;99.90
19031;DHT22;9648;51.130;13.978;2022-11-23T09:30:14;4.30;99.90
19031;DHT22;9648;51.130;13.978;2022-11-23T09:32:41;4.40;99.90
19031;DHT22;9648;51.130;13.978;2022-11-23T09:35:08;4.50;99.90
19031;DHT22;9648;51.130;13.978;2022-11-23T09:37:36;4.60;99.90
19031;DHT22;9648;51.130;13.978;2022-11-23T09:40:04;4.70;99.90
19031;DHT22;9648;51.130;13.978;2022-11-23T09:42:51;4.80;99.90
19031;DHT22;9648;51.130;13.978;2022-11-23T09:45:25;4.90;99.90
19031;DHT22;9648;51.130;13.978;2022-11-23T09:48:17;5.00;99.90
19031;DHT22;9648;51.130;13.978;2022-11-23T09:50:49;5.00;99.90
19031;DHT22;9648;51.130;13.978;2022-11-23T09:53:22;5.10;99.90
19031;DHT22;9648;51.130;13.978;2022-11-23T09:55:52;5.10;99.90
19031;DHT22;9648;51.130;13.978;2022-11-23T09:58:21;5.20;99.90
19031;DHT22;9648;51.130;13.978;2022-11-23T10:00:54;5.20;99.90
19031;DHT22;9648;51.130;13.978;2022-11-23T10:03:23;5.20;99.90
19031;DHT22;9648;51.130;13.978;2022-11-23T10:05:57;5.30;99.90
19031;DHT22;9648;51.130;13.978;2022-11-23T10:08:35;5.40;99.90
19031;DHT22;9648;51.130;13.978;2022-11-23T10:11:25;5.50;99.90
19031;DHT22;9648;51.130;13.978;2022-11-23T10:14:07;5.60;99.90
19031;DHT22;9648;51.130;13.978;2022-11-23T10:16:43;5.60;99.90
19031;DHT22;9648;51.130;13.978;2022-11-23T10:19:19;5.70;99.90
19031;DHT22;9648;51.130;13.978;2022-11-23T10:21:53;5.90;99.90
19031;DHT22;9648;51.130;13.978;2022-11-23T10:24:27;5.90;99.90
19031;DHT22;9648;51.130;13.978;2022-11-23T10:26:57;6.00;99.90
19031;DHT22;9648;51.130;13.978;2022-11-23T10:29:27;6.00;99.90
19031;DHT22;9648;51.130;13.978;2022-11-23T10:31:54;6.10;99.90
19031;DHT22;9648;51.130;13.978;2022-11-23T10:34:31;6.10;99.90
19031;DHT22;9648;51.130;13.978;2022-11-23T10:37:02;6.10;99.90
19031;DHT22;9648;51.130;13.978;2022-11-23T10:39:30;6.20;99.90
19031;DHT22;9648;51.130;13.978;2022-11-23T10:42:00;6.30;99.90
19031;DHT22;9648;51.130;13.978;2022-11-23T10:44:30;6.30;99.90
19031;DHT22;9648;51.130;13.978;2022-11-23T10:46:58;6.40;99.90
19031;DHT22;9648;51.130;13.978;2022-11-23T10:49:26;6.50;99.90
19031;DHT22;9648;51.130;13.978;2022-11-23T10:51:55;6.60;99.90
19031;DHT22;9648;51.130;13.978;2022-11-23T10:54:26;6.70;99.90
19031;DHT22;9648;51.130;13.978;2022-11-23T10:56:56;6.70;99.90
19031;DHT22;9648;51.130;13.978;2022-11-23T10:59:32;6.70;99.90
19031;DHT22;9648;51.130;13.978;2022-11-23T11:02:02;6.70;99.90
19031;DHT22;9648;51.130;13.978;2022-11-23T11:04:36;6.70;99.90
19031;DHT22;9648;51.130;13.978;2022-11-23T11:07:20;6.80;99.90
19031;DHT22;9648;51.130;13.978;2022-11-23T11:09:53;6.90;99.90
19031;DHT22;9648;51.130;13.978;2022-11-23T11:12:22;6.90;99.90
19031;DHT22;9648;51.130;13.978;2022-11-23T11:14:58;6.90;99.90
19031;DHT22;9648;51.130;13.978;2022-11-23T11:17:29;7.00;99.90
19031;DHT22;9648;51.130;13.978;2022-11-23T11:19:57;7.00;99.90
19031;DHT22;9648;51.130;13.978;2022-11-23T11:22:31;7.00;99.90
19031;DHT22;9648;51.130;13.978;2022-11-23T11:25:00;7.00;99.90
19031;DHT22;9648;51.130;13.978;2022-11-23T11:27:30;7.00;99.90
19031;DHT22;9648;51.130;13.978;2022-11-23T11:30:03;7.00;99.90
19031;DHT22;9648;51.130;13.978;2022-11-23T11:32:37;7.00;99.90
19031;DHT22;9648;51.130;13.978;2022-11-23T11:35:12;7.00;99.90
19031;DHT22;9648;51.130;13.978;2022-11-23T11:37:42;6.80;99.90
19031;DHT22;9648;51.130;13.978;2022-11-23T11:40:17;6.70;99.90
19031;DHT22;9648;51.130;13.978;2022-11-23T11:42:49;6.70;99.90
19031;DHT22;9648;51.130;13.978;2022-11-23T11:45:22;6.60;99.90
19031;DHT22;9648;51.130;13.978;2022-11-23T11:47:54;6.60;99.90
19031;DHT22;9648;51.130;13.978;2022-11-23T11:50:24;6.60;99.90
19031;DHT22;9648;51.130;13.978;2022-11-23T11:52:55;6.60;99.90
19031;DHT22;9648;51.130;13.978;2022-11-23T11:55:26;6.70;99.90
19031;DHT22;9648;51.130;13.978;2022-11-23T11:58:02;6.70;99.90
19031;DHT22;9648;51.130;13.978;2022-11-23T12:00:33;6.70;99.90
19031;DHT22;9648;51.130;13.978;2022-11-23T12:03:08;6.70;99.90
19031;DHT22;9648;51.130;13.978;2022-11-23T12:05:41;6.70;99.90
19031;DHT22;9648;51.130;13.978;2022-11-23T12:08:12;6.70;99.90
19031;DHT22;9648;51.130;13.978;2022-11-23T12:10:45;6.80;99.90
19031;DHT22;9648;51.130;13.978;2022-11-23T12:13:17;6.70;99.90
19031;DHT22;9648;51.130;13.978;2022-11-23T12:15:46;6.70;99.90
19031;DHT22;9648;51.130;13.978;2022-11-23T12:21:51;6.70;99.90
19031;DHT22;9648;51.130;13.978;2022-11-23T12:24:27;6.70;99.90
19031;DHT22;9648;51.130;13.978;2022-11-23T12:27:01;6.70;99.90
19031;DHT22;9648;51.130;13.978;2022-11-23T12:29:47;6.70;99.90
19031;DHT22;9648;51.130;13.978;2022-11-23T12:32:22;6.70;99.90
19031;DHT22;9648;51.130;13.978;2022-11-23T12:35:11;6.70;99.90
19031;DHT22;9648;51.130;13.978;2022-11-23T12:37:51;6.80;99.90
19031;DHT22;9648;51.130;13.978;2022-11-23T12:40:50;6.80;99.90
19031;DHT22;9648;51.130;13.978;2022-11-23T12:43:22;6.80;99.90
19031;DHT22;9648;51.130;13.978;2022-11-23T12:46:03;6.80;99.90
19031;DHT22;9648;51.130;13.978;2022-11-23T12:48:48;6.90;99.90
19031;DHT22;9648;51.130;13.978;2022-11-23T12:51:24;7.00;99.90
19031;DHT22;9648;51.130;13.978;2022-11-23T12:54:02;7.10;99.90
19031;DHT22;9648;51.130;13.978;2022-11-23T12:56:54;7.20;99.90
19031;DHT22;9648;51.130;13.978;2022-11-23T12:59:22;7.30;99.90
19031;DHT22;9648;51.130;13.978;2022-11-23T13:01:56;7.30;99.90
19031;DHT22;9648;51.130;13.978;2022-11-23T13:04:51;7.40;99.90
19031;DHT22;9648;51.130;13.978;2022-11-23T13:10:34;7.40;99.90
19031;DHT22;9648;51.130;13.978;2022-11-23T13:13:15;7.40;99.90
19031;DHT22;9648;51.130;13.978;2022-11-23T13:18:44;7.30;99.90
19031;DHT22;9648;51.130;13.978;2022-11-23T13:21:21;7.30;99.90
19031;DHT22;9648;51.130;13.978;2022-11-23T13:23:50;7.30;99.90
19031;DHT22;9648;51.130;13.978;2022-11-23T13:26:19;7.20;99.90
19031;DHT22;9648;51.130;13.978;2022-11-23T13:28:46;7.30;99.90
19031;DHT22;9648;51.130;13.978;2022-11-23T13:31:25;7.20;99.90
19031;DHT22;9648;51.130;13.978;2022-11-23T13:33:56;7.10;99.90
19031;DHT22;9648;51.130;13.978;2022-11-23T13:36:40;7.10;99.90
19031;DHT22;9648;51.130;13.978;2022-11-23T13:42:22;7.00;99.90
19031;DHT22;9648;51.130;13.978;2022-11-23T13:48:16;6.70;99.90
19031;DHT22;9648;51.130;13.978;2022-11-23T13:50:58;6.60;99.90
19031;DHT22;9648;51.130;13.978;2022-11-23T13:53:29;6.60;99.90
19031;DHT22;9648;51.130;13.978;2022-11-23T13:56:14;6.50;99.90
19031;DHT22;9648;51.130;13.978;2022-11-23T13:58:50;6.40;99.90
19031;DHT22;9648;51.130;13.978;2022-11-23T14:04:21;6.20;99.90
19031;DHT22;9648;51.130;13.978;2022-11-23T14:06:52;6.20;99.90
19031;DHT22;9648;51.130;13.978;2022-11-23T14:09:25;6.00;99.90
19031;DHT22;9648;51.130;13.978;2022-11-23T14:12:00;6.00;99.90
19031;DHT22;9648;51.130;13.978;2022-11-23T14:14:32;5.90;99.90
19031;DHT22;9648;51.130;13.978;2022-11-23T14:17:19;5.80;99.90
19031;DHT22;9648;51.130;13.978;2022-11-23T14:20:40;5.80;99.90
19031;DHT22;9648;51.130;13.978;2022-11-23T14:23:22;5.70;99.90
19031;DHT22;9648;51.130;13.978;2022-11-23T14:26:01;5.70;99.90
19031;DHT22;9648;51.130;13.978;2022-11-23T14:28:47;5.60;99.90
19031;DHT22;9648;51.130;13.978;2022-11-23T14:31:26;5.60;99.90
19031;DHT22;9648;51.130;13.978;2022-11-23T14:34:03;5.60;99.90
19031;DHT22;9648;51.130;13.978;2022-11-23T14:36:38;5.50;99.90
19031;DHT22;9648;51.130;13.978;2022-11-23T14:39:41;5.50;99.90
19031;DHT22;9648;51.130;13.978;2022-11-23T14:42:15;5.40;99.90
19031;DHT22;9648;51.130;13.978;2022-11-23T14:44:43;5.40;99.90
19031;DHT22;9648;51.130;13.978;2022-11-23T14:47:10;5.30;99.90
19031;DHT22;9648;51.130;13.978;2022-11-23T14:49:48;5.30;99.90
19031;DHT22;9648;51.130;13.978;2022-11-23T14:52:18;5.30;99.90
19031;DHT22;9648;51.130;13.978;2022-11-23T14:54:47;5.20;99.90
19031;DHT22;9648;51.130;13.978;2022-11-23T14:57:15;5.20;99.90
19031;DHT22;9648;51.130;13.978;2022-11-23T14:59:47;5.10;99.90
19031;DHT22;9648;51.130;13.978;2022-11-23T15:02:17;5.00;99.90
19031;DHT22;9648;51.130;13.978;2022-11-23T15:05:01;5.00;99.90
19031;DHT22;9648;51.130;13.978;2022-11-23T15:07:44;4.90;99.90
19031;DHT22;9648;51.130;13.978;2022-11-23T15:10:32;4.80;99.90
19031;DHT22;9648;51.130;13.978;2022-11-23T15:13:18;4.80;99.90
19031;DHT22;9648;51.130;13.978;2022-11-23T15:15:49;4.70;99.90
19031;DHT22;9648;51.130;13.978;2022-11-23T15:18:29;4.70;99.90
19031;DHT22;9648;51.130;13.978;2022-11-23T15:20:57;4.60;99.90
19031;DHT22;9648;51.130;13.978;2022-11-23T15:23:30;4.50;99.90
19031;DHT22;9648;51.130;13.978;2022-11-23T15:26:02;4.50;99.90
19031;DHT22;9648;51.130;13.978;2022-11-23T15:28:31;4.50;99.90
19031;DHT22;9648;51.130;13.978;2022-11-23T15:30:59;4.40;99.90
19031;DHT22;9648;51.130;13.978;2022-11-23T15:33:26;4.30;99.90
19031;DHT22;9648;51.130;13.978;2022-11-23T15:35:54;4.30;99.90
19031;DHT22;9648;51.130;13.978;2022-11-23T15:38:21;4.30;99.90
19031;DHT22;9648;51.130;13.978;2022-11-23T15:40:48;4.20;99.90
19031;DHT22;9648;51.130;13.978;2022-11-23T15:43:18;4.20;99.90
19031;DHT22;9648;51.130;13.978;2022-11-23T15:46:01;4.10;99.90
19031;DHT22;9648;51.130;13.978;2022-11-23T15:48:31;4.10;99.90
19031;DHT22;9648;51.130;13.978;2022-11-23T15:50:59;4.10;99.90
19031;DHT22;9648;51.130;13.978;2022-11-23T15:53:28;4.00;99.90
19031;DHT22;9648;51.130;13.978;2022-11-23T15:55:59;4.00;99.90
19031;DHT22;9648;51.130;13.978;2022-11-23T15:58:29;4.00;99.90
19031;DHT22;9648;51.130;13.978;2022-11-23T16:01:02;4.00;99.90
19031;DHT22;9648;51.130;13.978;2022-11-23T16:03:39;4.00;99.90
19031;DHT22;9648;51.130;13.978;2022-11-23T16:06:23;3.90;99.90
19031;DHT22;9648;51.130;13.978;2022-11-23T16:08:50;3.90;99.90
19031;DHT22;9648;51.130;13.978;2022-11-23T16:11:30;3.80;99.90
19031;DHT22;9648;51.130;13.978;2022-11-23T16:14:12;3.80;99.90
19031;DHT22;9648;51.130;13.978;2022-11-23T16:16:39;3.70;99.90
19031;DHT22;9648;51.130;13.978;2022-11-23T16:19:23;3.60;99.90
19031;DHT22;9648;51.130;13.978;2022-11-23T16:21:54;3.60;99.90
19031;DHT22;9648;51.130;13.978;2022-11-23T16:24:22;3.60;99.90